< < Back
Terminal Aerodrome Forecast


Current Version              Previous Versions:   1  2  3  4  5  6  7  8  9  

Terminal Aerodrome Forecast

551
FTUS42 KGSP 071737
TAFCLT
TAF
KCLT 071737Z 0718/0818 02012G20KT P6SM BKN180
     FM072100 36008KT P6SM SCT170
     FM080000 33003KT P6SM FEW250
     FM080800 25003KT P6SM SCT140
     FM081600 20007KT P6SM SCT060 BKN140=



Latest METAR

399
SAUS70 KWBC 071700 RRL
MTRCLT
METAR KCLT 071652Z 02013G18KT 10SM BKN180 09/M06 A3007 RMK AO2 SLP183
T00891061


USA.gov is the U.S. government's official web portal to all federal, state and local government web resources and services.